sensor_id;sensor_type;location;lat;lon;timestamp;P1;durP1;ratioP1;P2;durP2;ratioP2
15402;SDS011;7799;53.478;10.170;2023-05-21T00:02:00;0.90;;;0.77;;
15402;SDS011;7799;53.478;10.170;2023-05-21T00:04:29;0.53;;;0.53;;
15402;SDS011;7799;53.478;10.170;2023-05-21T00:06:57;1.13;;;0.83;;
15402;SDS011;7799;53.478;10.170;2023-05-21T00:09:25;1.37;;;0.80;;
15402;SDS011;7799;53.478;10.170;2023-05-21T00:11:51;1.03;;;0.80;;
15402;SDS011;7799;53.478;10.170;2023-05-21T00:14:18;0.80;;;0.60;;
15402;SDS011;7799;53.478;10.170;2023-05-21T00:16:44;0.70;;;0.70;;
15402;SDS011;7799;53.478;10.170;2023-05-21T00:19:11;1.03;;;0.70;;
15402;SDS011;7799;53.478;10.170;2023-05-21T00:21:39;1.10;;;0.80;;
15402;SDS011;7799;53.478;10.170;2023-05-21T00:24:06;0.80;;;0.80;;
15402;SDS011;7799;53.478;10.170;2023-05-21T00:26:32;0.73;;;0.70;;
15402;SDS011;7799;53.478;10.170;2023-05-21T00:29:05;1.27;;;0.87;;
15402;SDS011;7799;53.478;10.170;2023-05-21T00:31:32;0.87;;;0.80;;
15402;SDS011;7799;53.478;10.170;2023-05-21T00:33:58;0.70;;;0.70;;
15402;SDS011;7799;53.478;10.170;2023-05-21T00:36:25;0.67;;;0.60;;
15402;SDS011;7799;53.478;10.170;2023-05-21T00:38:53;1.23;;;0.70;;
15402;SDS011;7799;53.478;10.170;2023-05-21T00:41:20;1.03;;;0.77;;
15402;SDS011;7799;53.478;10.170;2023-05-21T00:43:49;0.73;;;0.70;;
15402;SDS011;7799;53.478;10.170;2023-05-21T00:46:17;0.80;;;0.80;;
15402;SDS011;7799;53.478;10.170;2023-05-21T00:48:45;1.07;;;0.97;;
15402;SDS011;7799;53.478;10.170;2023-05-21T00:51:12;1.30;;;0.90;;
15402;SDS011;7799;53.478;10.170;2023-05-21T00:53:39;0.63;;;0.63;;
15402;SDS011;7799;53.478;10.170;2023-05-21T00:56:07;0.73;;;0.63;;
15402;SDS011;7799;53.478;10.170;2023-05-21T00:58:34;1.50;;;0.70;;
15402;SDS011;7799;53.478;10.170;2023-05-21T01:01:01;0.70;;;0.70;;
15402;SDS011;7799;53.478;10.170;2023-05-21T01:03:30;0.70;;;0.70;;
15402;SDS011;7799;53.478;10.170;2023-05-21T01:06:02;0.70;;;0.70;;
15402;SDS011;7799;53.478;10.170;2023-05-21T01:08:29;1.30;;;0.77;;
15402;SDS011;7799;53.478;10.170;2023-05-21T01:10:56;0.87;;;0.80;;
15402;SDS011;7799;53.478;10.170;2023-05-21T01:13:25;0.80;;;0.80;;
15402;SDS011;7799;53.478;10.170;2023-05-21T01:15:52;1.83;;;0.80;;
15402;SDS011;7799;53.478;10.170;2023-05-21T01:18:20;0.70;;;0.70;;
15402;SDS011;7799;53.478;10.170;2023-05-21T01:20:48;1.07;;;0.70;;
15402;SDS011;7799;53.478;10.170;2023-05-21T01:23:16;0.70;;;0.70;;
15402;SDS011;7799;53.478;10.170;2023-05-21T01:25:43;0.40;;;0.40;;
15402;SDS011;7799;53.478;10.170;2023-05-21T01:28:10;0.90;;;0.67;;
15402;SDS011;7799;53.478;10.170;2023-05-21T01:30:36;0.90;;;0.80;;
15402;SDS011;7799;53.478;10.170;2023-05-21T01:33:06;0.80;;;0.60;;
15402;SDS011;7799;53.478;10.170;2023-05-21T01:35:37;0.73;;;0.60;;
15402;SDS011;7799;53.478;10.170;2023-05-21T01:38:08;1.03;;;0.63;;
15402;SDS011;7799;53.478;10.170;2023-05-21T01:40:40;0.50;;;0.50;;
15402;SDS011;7799;53.478;10.170;2023-05-21T01:43:11;0.50;;;0.50;;
15402;SDS011;7799;53.478;10.170;2023-05-21T01:45:38;0.90;;;0.73;;
15402;SDS011;7799;53.478;10.170;2023-05-21T01:48:08;1.17;;;0.60;;
15402;SDS011;7799;53.478;10.170;2023-05-21T01:50:36;1.17;;;0.67;;
15402;SDS011;7799;53.478;10.170;2023-05-21T01:53:04;0.60;;;0.60;;
15402;SDS011;7799;53.478;10.170;2023-05-21T01:55:31;0.77;;;0.40;;
15402;SDS011;7799;53.478;10.170;2023-05-21T01:57:59;0.87;;;0.60;;
15402;SDS011;7799;53.478;10.170;2023-05-21T02:00:26;0.60;;;0.60;;
15402;SDS011;7799;53.478;10.170;2023-05-21T02:02:53;0.70;;;0.70;;
15402;SDS011;7799;53.478;10.170;2023-05-21T02:05:20;0.77;;;0.63;;
15402;SDS011;7799;53.478;10.170;2023-05-21T02:07:48;0.93;;;0.60;;
15402;SDS011;7799;53.478;10.170;2023-05-21T02:10:16;0.70;;;0.70;;
15402;SDS011;7799;53.478;10.170;2023-05-21T02:12:43;0.77;;;0.60;;
15402;SDS011;7799;53.478;10.170;2023-05-21T02:15:11;1.03;;;0.60;;
15402;SDS011;7799;53.478;10.170;2023-05-21T02:17:42;0.80;;;0.80;;
15402;SDS011;7799;53.478;10.170;2023-05-21T02:20:10;1.13;;;0.70;;
15402;SDS011;7799;53.478;10.170;2023-05-21T02:22:38;1.13;;;0.90;;
15402;SDS011;7799;53.478;10.170;2023-05-21T02:25:05;1.07;;;0.80;;
15402;SDS011;7799;53.478;10.170;2023-05-21T02:27:34;0.60;;;0.60;;
15402;SDS011;7799;53.478;10.170;2023-05-21T02:30:01;0.60;;;0.60;;
15402;SDS011;7799;53.478;10.170;2023-05-21T02:32:30;0.50;;;0.50;;
15402;SDS011;7799;53.478;10.170;2023-05-21T02:35:00;1.20;;;0.67;;
15402;SDS011;7799;53.478;10.170;2023-05-21T02:37:28;0.60;;;0.60;;
15402;SDS011;7799;53.478;10.170;2023-05-21T02:39:59;0.87;;;0.73;;
15402;SDS011;7799;53.478;10.170;2023-05-21T02:42:26;0.73;;;0.73;;
15402;SDS011;7799;53.478;10.170;2023-05-21T02:44:53;1.03;;;0.90;;
15402;SDS011;7799;53.478;10.170;2023-05-21T02:47:20;0.83;;;0.80;;
15402;SDS011;7799;53.478;10.170;2023-05-21T02:49:49;1.20;;;0.87;;
15402;SDS011;7799;53.478;10.170;2023-05-21T02:52:16;0.87;;;0.83;;
15402;SDS011;7799;53.478;10.170;2023-05-21T02:54:43;1.57;;;1.10;;
15402;SDS011;7799;53.478;10.170;2023-05-21T02:57:11;1.27;;;1.17;;
15402;SDS011;7799;53.478;10.170;2023-05-21T02:59:37;1.70;;;1.10;;
15402;SDS011;7799;53.478;10.170;2023-05-21T03:02:04;1.60;;;1.20;;
15402;SDS011;7799;53.478;10.170;2023-05-21T03:04:31;1.17;;;1.07;;
15402;SDS011;7799;53.478;10.170;2023-05-21T03:07:04;1.53;;;1.40;;
15402;SDS011;7799;53.478;10.170;2023-05-21T03:09:34;1.57;;;1.30;;
15402;SDS011;7799;53.478;10.170;2023-05-21T03:12:00;0.97;;;0.90;;
15402;SDS011;7799;53.478;10.170;2023-05-21T03:14:27;1.17;;;1.03;;
15402;SDS011;7799;53.478;10.170;2023-05-21T03:16:54;0.80;;;0.80;;
15402;SDS011;7799;53.478;10.170;2023-05-21T03:19:21;1.30;;;0.90;;
15402;SDS011;7799;53.478;10.170;2023-05-21T03:21:48;1.17;;;0.83;;
15402;SDS011;7799;53.478;10.170;2023-05-21T03:24:17;1.70;;;1.00;;
15402;SDS011;7799;53.478;10.170;2023-05-21T03:26:44;1.20;;;0.93;;
15402;SDS011;7799;53.478;10.170;2023-05-21T03:29:13;0.90;;;0.90;;
15402;SDS011;7799;53.478;10.170;2023-05-21T03:31:41;1.00;;;0.90;;
15402;SDS011;7799;53.478;10.170;2023-05-21T03:34:10;1.30;;;0.90;;
15402;SDS011;7799;53.478;10.170;2023-05-21T03:36:36;1.67;;;1.00;;
15402;SDS011;7799;53.478;10.170;2023-05-21T03:39:03;0.80;;;0.80;;
15402;SDS011;7799;53.478;10.170;2023-05-21T03:41:34;1.20;;;0.80;;
15402;SDS011;7799;53.478;10.170;2023-05-21T03:44:06;1.00;;;0.90;;
15402;SDS011;7799;53.478;10.170;2023-05-21T03:46:45;1.77;;;1.10;;
15402;SDS011;7799;53.478;10.170;2023-05-21T03:49:32;1.10;;;0.90;;
15402;SDS011;7799;53.478;10.170;2023-05-21T03:51:59;1.37;;;1.00;;
15402;SDS011;7799;53.478;10.170;2023-05-21T03:54:26;1.00;;;1.00;;
15402;SDS011;7799;53.478;10.170;2023-05-21T03:56:59;1.13;;;0.90;;
15402;SDS011;7799;53.478;10.170;2023-05-21T03:59:27;0.70;;;0.70;;
15402;SDS011;7799;53.478;10.170;2023-05-21T04:01:54;1.30;;;0.90;;
15402;SDS011;7799;53.478;10.170;2023-05-21T04:04:21;1.00;;;0.90;;
15402;SDS011;7799;53.478;10.170;2023-05-21T04:06:47;0.90;;;0.90;;
15402;SDS011;7799;53.478;10.170;2023-05-21T04:09:15;1.20;;;1.10;;
15402;SDS011;7799;53.478;10.170;2023-05-21T04:11:42;1.03;;;0.93;;
15402;SDS011;7799;53.478;10.170;2023-05-21T04:14:10;1.30;;;1.20;;
15402;SDS011;7799;53.478;10.170;2023-05-21T04:16:36;1.83;;;1.27;;
15402;SDS011;7799;53.478;10.170;2023-05-21T04:19:08;1.97;;;1.23;;
15402;SDS011;7799;53.478;10.170;2023-05-21T04:21:34;1.50;;;1.20;;
15402;SDS011;7799;53.478;10.170;2023-05-21T04:24:02;2.03;;;1.23;;
15402;SDS011;7799;53.478;10.170;2023-05-21T04:26:42;1.37;;;1.20;;
15402;SDS011;7799;53.478;10.170;2023-05-21T04:29:10;1.27;;;1.10;;
15402;SDS011;7799;53.478;10.170;2023-05-21T04:31:37;1.30;;;1.20;;
15402;SDS011;7799;53.478;10.170;2023-05-21T04:34:03;1.00;;;0.90;;
15402;SDS011;7799;53.478;10.170;2023-05-21T04:36:30;1.27;;;1.10;;
15402;SDS011;7799;53.478;10.170;2023-05-21T04:38:57;1.87;;;1.03;;
15402;SDS011;7799;53.478;10.170;2023-05-21T04:41:24;1.27;;;1.17;;
15402;SDS011;7799;53.478;10.170;2023-05-21T04:43:51;1.47;;;1.20;;
15402;SDS011;7799;53.478;10.170;2023-05-21T04:46:21;2.00;;;1.10;;
15402;SDS011;7799;53.478;10.170;2023-05-21T04:48:50;1.50;;;1.40;;
15402;SDS011;7799;53.478;10.170;2023-05-21T04:51:19;1.23;;;1.10;;
15402;SDS011;7799;53.478;10.170;2023-05-21T04:53:46;1.30;;;1.20;;
15402;SDS011;7799;53.478;10.170;2023-05-21T04:56:14;1.23;;;1.10;;
15402;SDS011;7799;53.478;10.170;2023-05-21T04:58:42;1.33;;;1.23;;
15402;SDS011;7799;53.478;10.170;2023-05-21T05:01:09;1.50;;;1.40;;
15402;SDS011;7799;53.478;10.170;2023-05-21T05:03:37;2.00;;;1.10;;
15402;SDS011;7799;53.478;10.170;2023-05-21T05:06:04;1.97;;;1.50;;
15402;SDS011;7799;53.478;10.170;2023-05-21T05:08:32;1.63;;;1.33;;
15402;SDS011;7799;53.478;10.170;2023-05-21T05:10:59;2.47;;;1.10;;
15402;SDS011;7799;53.478;10.170;2023-05-21T05:13:26;1.07;;;1.00;;
15402;SDS011;7799;53.478;10.170;2023-05-21T05:15:52;1.13;;;0.93;;
15402;SDS011;7799;53.478;10.170;2023-05-21T05:18:19;0.90;;;0.87;;
15402;SDS011;7799;53.478;10.170;2023-05-21T05:20:47;1.73;;;1.40;;
15402;SDS011;7799;53.478;10.170;2023-05-21T05:23:14;1.07;;;0.97;;
15402;SDS011;7799;53.478;10.170;2023-05-21T05:25:41;1.03;;;0.93;;
15402;SDS011;7799;53.478;10.170;2023-05-21T05:28:07;1.70;;;1.00;;
15402;SDS011;7799;53.478;10.170;2023-05-21T05:30:34;1.40;;;1.00;;
15402;SDS011;7799;53.478;10.170;2023-05-21T05:33:12;1.03;;;1.00;;
15402;SDS011;7799;53.478;10.170;2023-05-21T05:35:39;1.20;;;1.03;;
15402;SDS011;7799;53.478;10.170;2023-05-21T05:38:07;1.50;;;1.03;;
15402;SDS011;7799;53.478;10.170;2023-05-21T05:40:35;1.30;;;1.03;;
15402;SDS011;7799;53.478;10.170;2023-05-21T05:43:01;1.93;;;1.20;;
15402;SDS011;7799;53.478;10.170;2023-05-21T05:45:28;1.83;;;1.33;;
15402;SDS011;7799;53.478;10.170;2023-05-21T05:47:55;1.60;;;1.50;;
15402;SDS011;7799;53.478;10.170;2023-05-21T05:50:22;2.07;;;1.70;;
15402;SDS011;7799;53.478;10.170;2023-05-21T05:52:48;1.30;;;1.20;;
15402;SDS011;7799;53.478;10.170;2023-05-21T05:55:17;2.00;;;1.80;;
15402;SDS011;7799;53.478;10.170;2023-05-21T05:57:43;1.87;;;1.70;;
15402;SDS011;7799;53.478;10.170;2023-05-21T06:00:13;2.10;;;1.87;;
15402;SDS011;7799;53.478;10.170;2023-05-21T06:02:45;2.00;;;1.80;;
15402;SDS011;7799;53.478;10.170;2023-05-21T06:05:13;2.00;;;1.80;;
15402;SDS011;7799;53.478;10.170;2023-05-21T06:07:41;2.17;;;1.80;;
15402;SDS011;7799;53.478;10.170;2023-05-21T06:10:07;2.37;;;2.17;;
15402;SDS011;7799;53.478;10.170;2023-05-21T06:12:36;2.13;;;1.93;;
15402;SDS011;7799;53.478;10.170;2023-05-21T06:15:04;2.77;;;2.30;;
15402;SDS011;7799;53.478;10.170;2023-05-21T06:17:32;2.10;;;1.90;;
15402;SDS011;7799;53.478;10.170;2023-05-21T06:19:59;2.37;;;2.00;;
15402;SDS011;7799;53.478;10.170;2023-05-21T06:22:26;2.50;;;2.27;;
15402;SDS011;7799;53.478;10.170;2023-05-21T06:24:53;2.70;;;1.90;;
15402;SDS011;7799;53.478;10.170;2023-05-21T06:27:20;1.90;;;1.80;;
15402;SDS011;7799;53.478;10.170;2023-05-21T06:29:49;1.70;;;1.60;;
15402;SDS011;7799;53.478;10.170;2023-05-21T06:32:16;2.03;;;1.93;;
15402;SDS011;7799;53.478;10.170;2023-05-21T06:34:45;3.10;;;2.20;;
15402;SDS011;7799;53.478;10.170;2023-05-21T06:37:12;2.80;;;2.53;;
15402;SDS011;7799;53.478;10.170;2023-05-21T06:39:38;2.60;;;2.40;;
15402;SDS011;7799;53.478;10.170;2023-05-21T06:42:05;2.90;;;2.70;;
15402;SDS011;7799;53.478;10.170;2023-05-21T06:44:45;3.20;;;2.33;;
15402;SDS011;7799;53.478;10.170;2023-05-21T06:47:22;2.70;;;2.50;;
15402;SDS011;7799;53.478;10.170;2023-05-21T06:49:50;2.83;;;2.63;;
15402;SDS011;7799;53.478;10.170;2023-05-21T06:52:16;3.37;;;3.17;;
15402;SDS011;7799;53.478;10.170;2023-05-21T06:54:43;4.17;;;3.73;;
15402;SDS011;7799;53.478;10.170;2023-05-21T06:57:10;3.70;;;3.30;;
15402;SDS011;7799;53.478;10.170;2023-05-21T06:59:36;3.63;;;3.27;;
15402;SDS011;7799;53.478;10.170;2023-05-21T07:02:03;4.03;;;3.63;;
15402;SDS011;7799;53.478;10.170;2023-05-21T07:04:34;3.97;;;3.67;;
15402;SDS011;7799;53.478;10.170;2023-05-21T07:07:01;4.20;;;3.90;;
15402;SDS011;7799;53.478;10.170;2023-05-21T07:09:30;3.30;;;3.00;;
15402;SDS011;7799;53.478;10.170;2023-05-21T07:11:56;4.90;;;3.80;;
15402;SDS011;7799;53.478;10.170;2023-05-21T07:14:23;3.73;;;3.43;;
15402;SDS011;7799;53.478;10.170;2023-05-21T07:16:50;3.60;;;3.30;;
15402;SDS011;7799;53.478;10.170;2023-05-21T07:19:17;3.40;;;3.10;;
15402;SDS011;7799;53.478;10.170;2023-05-21T07:21:45;4.00;;;3.70;;
15402;SDS011;7799;53.478;10.170;2023-05-21T07:24:11;3.80;;;3.50;;
15402;SDS011;7799;53.478;10.170;2023-05-21T07:26:39;3.93;;;3.63;;
15402;SDS011;7799;53.478;10.170;2023-05-21T07:29:06;4.83;;;4.40;;
15402;SDS011;7799;53.478;10.170;2023-05-21T07:31:32;5.70;;;4.57;;
15402;SDS011;7799;53.478;10.170;2023-05-21T07:33:59;6.70;;;6.00;;
15402;SDS011;7799;53.478;10.170;2023-05-21T07:36:28;5.17;;;4.77;;
15402;SDS011;7799;53.478;10.170;2023-05-21T07:38:59;5.13;;;4.67;;
15402;SDS011;7799;53.478;10.170;2023-05-21T07:41:28;4.40;;;4.10;;
15402;SDS011;7799;53.478;10.170;2023-05-21T07:43:57;4.20;;;3.90;;
15402;SDS011;7799;53.478;10.170;2023-05-21T07:46:25;4.50;;;4.10;;
15402;SDS011;7799;53.478;10.170;2023-05-21T07:48:54;4.50;;;4.10;;
15402;SDS011;7799;53.478;10.170;2023-05-21T07:51:21;4.30;;;3.97;;
15402;SDS011;7799;53.478;10.170;2023-05-21T07:53:48;4.50;;;4.10;;
15402;SDS011;7799;53.478;10.170;2023-05-21T07:56:19;4.80;;;4.40;;
15402;SDS011;7799;53.478;10.170;2023-05-21T07:58:47;4.80;;;4.40;;
15402;SDS011;7799;53.478;10.170;2023-05-21T08:01:14;5.40;;;4.90;;
15402;SDS011;7799;53.478;10.170;2023-05-21T08:03:41;5.23;;;4.73;;
15402;SDS011;7799;53.478;10.170;2023-05-21T08:06:08;4.70;;;4.30;;
15402;SDS011;7799;53.478;10.170;2023-05-21T08:08:35;4.57;;;4.23;;
15402;SDS011;7799;53.478;10.170;2023-05-21T08:11:02;4.20;;;3.90;;
15402;SDS011;7799;53.478;10.170;2023-05-21T08:13:30;3.67;;;3.37;;
15402;SDS011;7799;53.478;10.170;2023-05-21T08:15:57;3.70;;;3.40;;
15402;SDS011;7799;53.478;10.170;2023-05-21T08:18:25;4.20;;;3.90;;
15402;SDS011;7799;53.478;10.170;2023-05-21T08:20:54;4.17;;;3.87;;
15402;SDS011;7799;53.478;10.170;2023-05-21T08:23:22;3.90;;;3.60;;
15402;SDS011;7799;53.478;10.170;2023-05-21T08:25:53;3.90;;;3.60;;
15402;SDS011;7799;53.478;10.170;2023-05-21T08:28:20;4.07;;;3.77;;
15402;SDS011;7799;53.478;10.170;2023-05-21T08:30:48;4.60;;;4.20;;
15402;SDS011;7799;53.478;10.170;2023-05-21T08:33:15;3.80;;;3.50;;
15402;SDS011;7799;53.478;10.170;2023-05-21T08:35:43;4.00;;;3.70;;
15402;SDS011;7799;53.478;10.170;2023-05-21T08:38:19;4.87;;;4.47;;
15402;SDS011;7799;53.478;10.170;2023-05-21T08:41:12;4.60;;;4.20;;
15402;SDS011;7799;53.478;10.170;2023-05-21T08:43:40;4.10;;;3.70;;
15402;SDS011;7799;53.478;10.170;2023-05-21T08:46:08;3.93;;;3.63;;
15402;SDS011;7799;53.478;10.170;2023-05-21T08:48:38;3.97;;;3.67;;
15402;SDS011;7799;53.478;10.170;2023-05-21T08:51:05;3.90;;;3.50;;
15402;SDS011;7799;53.478;10.170;2023-05-21T08:53:37;4.73;;;4.33;;
15402;SDS011;7799;53.478;10.170;2023-05-21T08:56:07;4.60;;;4.20;;
15402;SDS011;7799;53.478;10.170;2023-05-21T08:58:40;4.33;;;3.97;;
15402;SDS011;7799;53.478;10.170;2023-05-21T09:01:09;3.97;;;3.67;;
15402;SDS011;7799;53.478;10.170;2023-05-21T09:03:39;4.87;;;4.47;;
15402;SDS011;7799;53.478;10.170;2023-05-21T09:06:07;4.60;;;4.30;;
15402;SDS011;7799;53.478;10.170;2023-05-21T09:08:41;4.13;;;3.83;;
15402;SDS011;7799;53.478;10.170;2023-05-21T09:11:17;4.60;;;4.27;;
15402;SDS011;7799;53.478;10.170;2023-05-21T09:13:51;4.70;;;4.37;;
15402;SDS011;7799;53.478;10.170;2023-05-21T09:16:27;4.40;;;4.10;;
15402;SDS011;7799;53.478;10.170;2023-05-21T09:18:54;5.00;;;4.60;;
15402;SDS011;7799;53.478;10.170;2023-05-21T09:21:28;4.07;;;3.77;;
15402;SDS011;7799;53.478;10.170;2023-05-21T09:24:16;6.10;;;5.60;;
15402;SDS011;7799;53.478;10.170;2023-05-21T09:26:42;6.53;;;6.03;;
15402;SDS011;7799;53.478;10.170;2023-05-21T09:29:09;5.20;;;4.80;;
15402;SDS011;7799;53.478;10.170;2023-05-21T09:31:42;5.40;;;5.00;;
15402;SDS011;7799;53.478;10.170;2023-05-21T09:34:10;5.00;;;4.60;;
15402;SDS011;7799;53.478;10.170;2023-05-21T09:36:38;5.33;;;4.93;;
15402;SDS011;7799;53.478;10.170;2023-05-21T09:39:05;5.93;;;5.47;;
15402;SDS011;7799;53.478;10.170;2023-05-21T09:41:34;6.77;;;6.23;;
15402;SDS011;7799;53.478;10.170;2023-05-21T09:44:03;6.83;;;6.33;;
15402;SDS011;7799;53.478;10.170;2023-05-21T09:46:36;6.53;;;6.03;;
15402;SDS011;7799;53.478;10.170;2023-05-21T09:49:06;6.10;;;5.67;;
15402;SDS011;7799;53.478;10.170;2023-05-21T09:51:32;5.67;;;5.20;;
15402;SDS011;7799;53.478;10.170;2023-05-21T09:54:05;6.63;;;6.13;;
15402;SDS011;7799;53.478;10.170;2023-05-21T09:56:32;6.45;;;5.95;;
15402;SDS011;7799;53.478;10.170;2023-05-21T09:59:01;7.77;;;7.10;;
15402;SDS011;7799;53.478;10.170;2023-05-21T10:01:29;7.15;;;6.55;;
15402;SDS011;7799;53.478;10.170;2023-05-21T10:03:58;7.18;;;6.57;;
15402;SDS011;7799;53.478;10.170;2023-05-21T10:06:28;6.47;;;5.97;;
15402;SDS011;7799;53.478;10.170;2023-05-21T10:08:56;6.45;;;5.88;;
15402;SDS011;7799;53.478;10.170;2023-05-21T10:11:25;6.90;;;6.30;;
15402;SDS011;7799;53.478;10.170;2023-05-21T10:13:54;7.75;;;7.15;;
15402;SDS011;7799;53.478;10.170;2023-05-21T10:16:23;7.72;;;7.13;;
15402;SDS011;7799;53.478;10.170;2023-05-21T10:18:50;6.97;;;6.40;;
15402;SDS011;7799;53.478;10.170;2023-05-21T10:21:18;7.35;;;6.75;;
15402;SDS011;7799;53.478;10.170;2023-05-21T10:23:47;6.72;;;6.20;;
15402;SDS011;7799;53.478;10.170;2023-05-21T10:26:15;6.82;;;6.32;;
15402;SDS011;7799;53.478;10.170;2023-05-21T10:28:41;6.65;;;6.15;;
15402;SDS011;7799;53.478;10.170;2023-05-21T10:31:08;7.30;;;6.68;;
15402;SDS011;7799;53.478;10.170;2023-05-21T10:33:35;7.45;;;6.93;;
15402;SDS011;7799;53.478;10.170;2023-05-21T10:36:02;6.90;;;6.40;;
15402;SDS011;7799;53.478;10.170;2023-05-21T10:38:30;6.43;;;5.93;;
15402;SDS011;7799;53.478;10.170;2023-05-21T10:40:58;6.35;;;5.95;;
15402;SDS011;7799;53.478;10.170;2023-05-21T10:43:33;5.75;;;5.35;;
15402;SDS011;7799;53.478;10.170;2023-05-21T10:46:21;5.60;;;5.10;;
15402;SDS011;7799;53.478;10.170;2023-05-21T10:48:57;7.20;;;6.60;;
15402;SDS011;7799;53.478;10.170;2023-05-21T10:51:38;5.80;;;5.40;;
15402;SDS011;7799;53.478;10.170;2023-05-21T10:54:17;7.05;;;6.55;;
15402;SDS011;7799;53.478;10.170;2023-05-21T10:56:56;6.95;;;6.45;;
15402;SDS011;7799;53.478;10.170;2023-05-21T10:59:33;7.57;;;7.07;;
15402;SDS011;7799;53.478;10.170;2023-05-21T11:02:02;7.30;;;6.80;;
15402;SDS011;7799;53.478;10.170;2023-05-21T11:04:29;7.55;;;6.97;;
15402;SDS011;7799;53.478;10.170;2023-05-21T11:06:57;7.68;;;7.07;;
15402;SDS011;7799;53.478;10.170;2023-05-21T11:09:23;7.07;;;6.57;;
15402;SDS011;7799;53.478;10.170;2023-05-21T11:11:52;6.63;;;6.13;;
15402;SDS011;7799;53.478;10.170;2023-05-21T11:14:24;8.38;;;7.68;;
15402;SDS011;7799;53.478;10.170;2023-05-21T11:16:57;9.30;;;8.60;;
15402;SDS011;7799;53.478;10.170;2023-05-21T11:19:33;8.50;;;7.80;;
15402;SDS011;7799;53.478;10.170;2023-05-21T11:22:04;6.95;;;6.45;;
15402;SDS011;7799;53.478;10.170;2023-05-21T11:24:34;7.88;;;7.28;;
15402;SDS011;7799;53.478;10.170;2023-05-21T11:27:04;7.35;;;6.75;;
15402;SDS011;7799;53.478;10.170;2023-05-21T11:29:34;8.30;;;7.60;;
15402;SDS011;7799;53.478;10.170;2023-05-21T11:32:06;7.95;;;7.35;;
15402;SDS011;7799;53.478;10.170;2023-05-21T11:34:38;8.95;;;8.25;;
15402;SDS011;7799;53.478;10.170;2023-05-21T11:37:21;7.95;;;7.35;;
15402;SDS011;7799;53.478;10.170;2023-05-21T11:42:53;7.68;;;6.97;;
15402;SDS011;7799;53.478;10.170;2023-05-21T11:45:20;7.93;;;7.32;;
15402;SDS011;7799;53.478;10.170;2023-05-21T11:47:48;8.93;;;8.23;;
15402;SDS011;7799;53.478;10.170;2023-05-21T11:50:16;9.60;;;8.73;;
15402;SDS011;7799;53.478;10.170;2023-05-21T11:52:43;9.45;;;8.75;;
15402;SDS011;7799;53.478;10.170;2023-05-21T11:55:10;8.75;;;8.05;;
15402;SDS011;7799;53.478;10.170;2023-05-21T11:57:40;7.88;;;7.28;;
15402;SDS011;7799;53.478;10.170;2023-05-21T12:00:13;8.07;;;7.38;;
15402;SDS011;7799;53.478;10.170;2023-05-21T12:02:45;7.88;;;7.28;;
15402;SDS011;7799;53.478;10.170;2023-05-21T12:05:15;8.80;;;8.20;;
15402;SDS011;7799;53.478;10.170;2023-05-21T12:07:45;7.70;;;7.10;;
15402;SDS011;7799;53.478;10.170;2023-05-21T12:10:14;7.47;;;6.88;;
15402;SDS011;7799;53.478;10.170;2023-05-21T12:12:40;7.80;;;7.10;;
15402;SDS011;7799;53.478;10.170;2023-05-21T12:15:07;7.88;;;7.28;;
15402;SDS011;7799;53.478;10.170;2023-05-21T12:17:38;8.57;;;7.88;;
15402;SDS011;7799;53.478;10.170;2023-05-21T12:20:05;7.47;;;6.88;;
15402;SDS011;7799;53.478;10.170;2023-05-21T12:22:34;7.43;;;6.82;;
15402;SDS011;7799;53.478;10.170;2023-05-21T12:25:06;8.43;;;7.70;;
15402;SDS011;7799;53.478;10.170;2023-05-21T12:27:34;8.48;;;7.78;;
15402;SDS011;7799;53.478;10.170;2023-05-21T12:30:01;8.45;;;7.75;;
15402;SDS011;7799;53.478;10.170;2023-05-21T12:32:29;9.02;;;8.32;;
15402;SDS011;7799;53.478;10.170;2023-05-21T12:34:57;9.27;;;8.45;;
15402;SDS011;7799;53.478;10.170;2023-05-21T12:37:24;7.10;;;6.50;;
15402;SDS011;7799;53.478;10.170;2023-05-21T12:39:52;7.40;;;6.78;;
15402;SDS011;7799;53.478;10.170;2023-05-21T12:42:23;8.27;;;7.60;;
15402;SDS011;7799;53.478;10.170;2023-05-21T12:44:51;7.22;;;6.72;;
15402;SDS011;7799;53.478;10.170;2023-05-21T12:47:18;7.35;;;6.75;;
15402;SDS011;7799;53.478;10.170;2023-05-21T12:49:48;7.93;;;7.22;;
15402;SDS011;7799;53.478;10.170;2023-05-21T12:52:18;8.05;;;7.35;;
15402;SDS011;7799;53.478;10.170;2023-05-21T12:54:48;8.20;;;7.50;;
15402;SDS011;7799;53.478;10.170;2023-05-21T12:57:16;7.35;;;6.50;;
15402;SDS011;7799;53.478;10.170;2023-05-21T12:59:47;8.23;;;7.55;;
15402;SDS011;7799;53.478;10.170;2023-05-21T13:02:15;7.45;;;6.85;;
15402;SDS011;7799;53.478;10.170;2023-05-21T13:04:43;8.35;;;7.65;;
15402;SDS011;7799;53.478;10.170;2023-05-21T13:07:11;7.95;;;7.25;;
15402;SDS011;7799;53.478;10.170;2023-05-21T13:09:42;7.43;;;6.82;;
15402;SDS011;7799;53.478;10.170;2023-05-21T13:12:09;8.15;;;7.50;;
15402;SDS011;7799;53.478;10.170;2023-05-21T13:14:37;7.30;;;6.80;;
15402;SDS011;7799;53.478;10.170;2023-05-21T13:17:04;6.82;;;6.35;;
15402;SDS011;7799;53.478;10.170;2023-05-21T13:19:30;7.40;;;6.68;;
15402;SDS011;7799;53.478;10.170;2023-05-21T13:21:57;7.10;;;6.40;;
15402;SDS011;7799;53.478;10.170;2023-05-21T13:24:24;6.53;;;6.13;;
15402;SDS011;7799;53.478;10.170;2023-05-21T13:26:52;5.70;;;5.25;;
15402;SDS011;7799;53.478;10.170;2023-05-21T13:29:18;6.32;;;5.90;;
15402;SDS011;7799;53.478;10.170;2023-05-21T13:31:45;6.00;;;5.40;;
15402;SDS011;7799;53.478;10.170;2023-05-21T13:34:15;6.38;;;5.85;;
15402;SDS011;7799;53.478;10.170;2023-05-21T13:36:41;5.88;;;5.47;;
15402;SDS011;7799;53.478;10.170;2023-05-21T13:39:08;6.00;;;5.53;;
15402;SDS011;7799;53.478;10.170;2023-05-21T13:41:34;5.82;;;5.32;;
15402;SDS011;7799;53.478;10.170;2023-05-21T13:44:02;6.40;;;5.90;;
15402;SDS011;7799;53.478;10.170;2023-05-21T13:46:29;6.25;;;5.75;;
15402;SDS011;7799;53.478;10.170;2023-05-21T13:48:56;6.30;;;5.90;;
15402;SDS011;7799;53.478;10.170;2023-05-21T13:51:22;6.55;;;5.95;;
15402;SDS011;7799;53.478;10.170;2023-05-21T13:53:49;6.18;;;5.68;;
15402;SDS011;7799;53.478;10.170;2023-05-21T13:56:16;5.65;;;5.22;;
15402;SDS011;7799;53.478;10.170;2023-05-21T13:58:44;5.32;;;4.93;;
15402;SDS011;7799;53.478;10.170;2023-05-21T14:01:12;4.65;;;4.25;;
15402;SDS011;7799;53.478;10.170;2023-05-21T14:03:39;5.25;;;4.85;;
15402;SDS011;7799;53.478;10.170;2023-05-21T14:06:06;5.03;;;4.63;;
15402;SDS011;7799;53.478;10.170;2023-05-21T14:08:32;5.38;;;4.88;;
15402;SDS011;7799;53.478;10.170;2023-05-21T14:10:59;5.80;;;5.40;;
15402;SDS011;7799;53.478;10.170;2023-05-21T14:13:26;4.78;;;4.47;;
15402;SDS011;7799;53.478;10.170;2023-05-21T14:15:53;3.95;;;3.75;;
15402;SDS011;7799;53.478;10.170;2023-05-21T14:18:21;4.47;;;4.18;;
15402;SDS011;7799;53.478;10.170;2023-05-21T14:20:48;4.30;;;4.00;;
15402;SDS011;7799;53.478;10.170;2023-05-21T14:23:14;5.32;;;4.90;;
15402;SDS011;7799;53.478;10.170;2023-05-21T14:25:41;4.53;;;4.22;;
15402;SDS011;7799;53.478;10.170;2023-05-21T14:28:08;4.20;;;3.90;;
15402;SDS011;7799;53.478;10.170;2023-05-21T14:30:34;4.65;;;4.30;;
15402;SDS011;7799;53.478;10.170;2023-05-21T14:33:01;5.00;;;4.50;;
15402;SDS011;7799;53.478;10.170;2023-05-21T14:35:29;4.72;;;4.32;;
15402;SDS011;7799;53.478;10.170;2023-05-21T14:37:56;5.15;;;4.75;;
15402;SDS011;7799;53.478;10.170;2023-05-21T14:40:22;5.07;;;4.68;;
15402;SDS011;7799;53.478;10.170;2023-05-21T14:42:49;4.30;;;3.90;;
15402;SDS011;7799;53.478;10.170;2023-05-21T14:45:17;4.63;;;4.22;;
15402;SDS011;7799;53.478;10.170;2023-05-21T14:47:44;4.30;;;4.00;;
15402;SDS011;7799;53.478;10.170;2023-05-21T14:50:11;4.10;;;3.80;;
15402;SDS011;7799;53.478;10.170;2023-05-21T14:52:40;5.45;;;4.95;;
15402;SDS011;7799;53.478;10.170;2023-05-21T14:55:08;4.43;;;4.13;;
15402;SDS011;7799;53.478;10.170;2023-05-21T14:57:36;3.83;;;3.53;;
15402;SDS011;7799;53.478;10.170;2023-05-21T15:00:03;4.30;;;4.00;;